RCF954 EDFH-UUEE
Flight info
| Callsign | RCF954 |
|---|---|
| Flight time | 2h 43m |
| Altitude | 23000 |
| Route | ULKIG1L ULKIG Z100 RUDUS Z10 TOBAK/N0480F350 N858 BOKSU DCT LAFAT/K0880F350 N858 INKUZ L29 BENIM M997 RATIN L999 AGLAN M864 DIPOP DIPOP3F |
| Aircraft | MD11/H-SDE1E2E3FGHIJ2J3J4J5M1RWXY/LB1D1 |
Departure
| Time | 2026-05-07 14:31 |
|---|---|
| Airport | Frankfurt-Hahn Airport (EDFH) |
Arrival
| Time | 2026-05-07 17:14 |
|---|---|
| Airport | Sheremetyevo International Airport (UUEE) |
| Time | Latitude | Longitude | Altitude | Speed | Heading |
|---|---|---|---|---|---|
| 2026-05-07 14:00 | 49.95052 | 7.27226 | 1614 ft | 0 kts | 123° |
| 2026-05-07 14:21 | 49.95054 | 7.27222 | 1614 ft | 2 kts | 123° |
| 2026-05-07 14:21 | 49.95063 | 7.27201 | 1624 ft | 2 kts | 123° |
| 2026-05-07 14:22 | 49.95072 | 7.27179 | 1621 ft | 2 kts | 122° |
| 2026-05-07 14:22 | 49.95081 | 7.27157 | 1624 ft | 2 kts | 121° |
| 2026-05-07 14:22 | 49.95090 | 7.27136 | 1624 ft | 2 kts | 110° |
| 2026-05-07 14:22 | 49.95093 | 7.27111 | 1622 ft | 2 kts | 77° |
| 2026-05-07 14:23 | 49.95087 | 7.27087 | 1625 ft | 2 kts | 47° |
| 2026-05-07 14:23 | 49.95080 | 7.27076 | 1626 ft | 1 kts | 34° |
| 2026-05-07 14:26 | 49.95083 | 7.27078 | 1625 ft | 2 kts | 33° |
| 2026-05-07 14:26 | 49.95109 | 7.27105 | 1624 ft | 7 kts | 32° |
| 2026-05-07 14:26 | 49.95161 | 7.27155 | 1622 ft | 10 kts | 32° |
| 2026-05-07 14:27 | 49.95224 | 7.27217 | 1615 ft | 12 kts | 32° |
| 2026-05-07 14:27 | 49.95296 | 7.27289 | 1619 ft | 13 kts | 32° |
| 2026-05-07 14:27 | 49.95372 | 7.27364 | 1620 ft | 13 kts | 33° |
| 2026-05-07 14:27 | 49.95445 | 7.27438 | 1619 ft | 13 kts | 33° |
| 2026-05-07 14:28 | 49.95502 | 7.27493 | 1615 ft | 6 kts | 31° |
| 2026-05-07 14:28 | 49.95537 | 7.27527 | 1619 ft | 5 kts | 31° |
| 2026-05-07 14:28 | 49.95568 | 7.27546 | 1616 ft | 4 kts | 17° |
| 2026-05-07 14:28 | 49.95580 | 7.27544 | 1616 ft | 1 kts | 349° |
| 2026-05-07 14:29 | 49.95601 | 7.27528 | 1617 ft | 6 kts | 332° |
| 2026-05-07 14:29 | 49.95661 | 7.27471 | 1618 ft | 13 kts | 328° |
| 2026-05-07 14:29 | 49.95734 | 7.27388 | 1615 ft | 13 kts | 316° |
| 2026-05-07 14:29 | 49.95757 | 7.27329 | 1614 ft | 7 kts | 292° |
| 2026-05-07 14:30 | 49.95761 | 7.27301 | 1609 ft | 2 kts | 276° |
| 2026-05-07 14:30 | 49.95754 | 7.27266 | 1611 ft | 5 kts | 245° |
| 2026-05-07 14:30 | 49.95689 | 7.27196 | 1613 ft | 31 kts | 211° |
| 2026-05-07 14:30 | 49.95272 | 7.26785 | 1618 ft | 109 kts | 212° |
| 2026-05-07 14:31 | 49.94462 | 7.25986 | 1634 ft | 168 kts | 212° |
| 2026-05-07 14:31 | 49.93402 | 7.24936 | 1987 ft | 188 kts | 214° |
| 2026-05-07 14:31 | 49.92309 | 7.23874 | 2903 ft | 183 kts | 213° |
| 2026-05-07 14:31 | 49.91200 | 7.22844 | 3631 ft | 189 kts | 213° |
| 2026-05-07 14:32 | 49.90074 | 7.21730 | 4300 ft | 193 kts | 214° |
| 2026-05-07 14:32 | 49.88927 | 7.20585 | 4953 ft | 203 kts | 213° |
| 2026-05-07 14:32 | 49.87668 | 7.19395 | 5329 ft | 223 kts | 211° |
| 2026-05-07 14:32 | 49.86263 | 7.18124 | 5755 ft | 239 kts | 211° |
| 2026-05-07 14:33 | 49.84795 | 7.16797 | 6356 ft | 251 kts | 211° |
| 2026-05-07 14:33 | 49.83297 | 7.15372 | 7211 ft | 249 kts | 216° |
| 2026-05-07 14:33 | 49.81888 | 7.13792 | 8172 ft | 251 kts | 218° |
| 2026-05-07 14:33 | 49.80479 | 7.12177 | 9023 ft | 255 kts | 217° |
| 2026-05-07 14:34 | 49.79121 | 7.10451 | 9839 ft | 257 kts | 227° |
| 2026-05-07 14:34 | 49.78110 | 7.08175 | 10566 ft | 259 kts | 249° |
| 2026-05-07 14:34 | 49.77800 | 7.05443 | 11267 ft | 262 kts | 275° |
| 2026-05-07 14:34 | 49.78342 | 7.02759 | 11953 ft | 267 kts | 302° |
| 2026-05-07 14:35 | 49.79669 | 7.00748 | 12639 ft | 273 kts | 330° |
| 2026-05-07 14:35 | 49.81497 | 6.99953 | 13358 ft | 279 kts | 358° |
| 2026-05-07 14:35 | 49.83439 | 7.00323 | 14022 ft | 285 kts | 11° |
| 2026-05-07 14:35 | 49.85349 | 7.01228 | 14678 ft | 290 kts | 23° |
| 2026-05-07 14:36 | 49.87023 | 7.02971 | 15352 ft | 294 kts | 45° |
| 2026-05-07 14:36 | 49.88330 | 7.05453 | 15959 ft | 299 kts | 54° |
| 2026-05-07 14:36 | 49.89493 | 7.08141 | 16606 ft | 302 kts | 56° |
| 2026-05-07 14:36 | 49.90642 | 7.10893 | 17261 ft | 305 kts | 56° |
| 2026-05-07 14:37 | 49.91831 | 7.13647 | 17893 ft | 308 kts | 53° |
| 2026-05-07 14:37 | 49.94492 | 7.18904 | 19080 ft | 314 kts | 51° |
| 2026-05-07 14:37 | 49.95679 | 7.21802 | 19421 ft | 327 kts | 66° |
| 2026-05-07 14:38 | 49.96158 | 7.25321 | 19560 ft | 344 kts | 92° |
| 2026-05-07 14:38 | 49.95642 | 7.29015 | 19699 ft | 359 kts | 112° |
| 2026-05-07 14:38 | 49.94551 | 7.32609 | 19849 ft | 376 kts | 118° |
| 2026-05-07 14:38 | 49.93261 | 7.36229 | 19968 ft | 392 kts | 120° |
| 2026-05-07 14:39 | 49.92042 | 7.40104 | 20100 ft | 407 kts | 111° |
| 2026-05-07 14:39 | 49.91146 | 7.44340 | 20286 ft | 418 kts | 105° |
| 2026-05-07 14:39 | 49.90429 | 7.48732 | 20724 ft | 422 kts | 103° |
| 2026-05-07 14:39 | 49.89782 | 7.53134 | 21234 ft | 425 kts | 103° |
| 2026-05-07 14:40 | 49.89136 | 7.57622 | 21739 ft | 428 kts | 103° |
| 2026-05-07 14:40 | 49.88545 | 7.62161 | 22239 ft | 431 kts | 99° |
| 2026-05-07 14:40 | 49.88269 | 7.66789 | 22760 ft | 433 kts | 90° |
| 2026-05-07 14:40 | 49.88523 | 7.71460 | 23272 ft | 436 kts | 78° |
| 2026-05-07 14:41 | 49.89385 | 7.75991 | 23770 ft | 439 kts | 66° |
| 2026-05-07 14:41 | 49.90815 | 7.80169 | 24212 ft | 440 kts | 56° |
| 2026-05-07 14:41 | 49.92613 | 7.84038 | 24661 ft | 443 kts | 51° |
| 2026-05-07 14:41 | 49.94547 | 7.87772 | 25132 ft | 445 kts | 50° |
| 2026-05-07 14:42 | 49.96515 | 7.91503 | 25616 ft | 448 kts | 50° |
| 2026-05-07 14:42 | 49.98482 | 7.95289 | 26091 ft | 451 kts | 50° |
| 2026-05-07 14:42 | 50.00433 | 7.99125 | 26554 ft | 454 kts | 51° |
| 2026-05-07 14:42 | 50.02357 | 8.02975 | 27021 ft | 456 kts | 51° |
| 2026-05-07 14:43 | 50.04347 | 8.06843 | 27452 ft | 459 kts | 47° |
| 2026-05-07 14:43 | 50.06582 | 8.10388 | 27908 ft | 460 kts | 42° |
| 2026-05-07 14:43 | 50.08977 | 8.13715 | 28348 ft | 463 kts | 39° |
| 2026-05-07 14:43 | 50.11446 | 8.16961 | 28785 ft | 466 kts | 39° |
| 2026-05-07 14:44 | 50.13939 | 8.20202 | 29214 ft | 468 kts | 39° |
| 2026-05-07 14:44 | 50.16448 | 8.23484 | 29650 ft | 471 kts | 39° |
| 2026-05-07 14:44 | 50.18959 | 8.26806 | 30038 ft | 474 kts | 39° |
| 2026-05-07 14:44 | 50.21471 | 8.30164 | 30370 ft | 477 kts | 39° |
| 2026-05-07 14:45 | 50.23965 | 8.33519 | 30702 ft | 479 kts | 40° |
| 2026-05-07 14:45 | 50.26480 | 8.36919 | 31093 ft | 478 kts | 40° |
| 2026-05-07 14:45 | 50.28986 | 8.40343 | 31504 ft | 478 kts | 40° |
| 2026-05-07 14:45 | 50.31451 | 8.43833 | 31902 ft | 478 kts | 41° |
| 2026-05-07 14:46 | 50.33897 | 8.47371 | 32286 ft | 477 kts | 42° |
| 2026-05-07 14:46 | 50.36324 | 8.50908 | 32672 ft | 477 kts | 41° |
| 2026-05-07 14:46 | 50.38799 | 8.54405 | 33037 ft | 476 kts | 40° |
| 2026-05-07 14:46 | 50.41275 | 8.57741 | 33401 ft | 475 kts | 39° |
| 2026-05-07 14:47 | 50.43810 | 8.61072 | 33734 ft | 475 kts | 39° |
| 2026-05-07 14:47 | 50.46349 | 8.64387 | 34092 ft | 474 kts | 39° |
| 2026-05-07 14:47 | 50.48888 | 8.67704 | 34351 ft | 474 kts | 39° |
| 2026-05-07 14:47 | 50.51426 | 8.71031 | 34586 ft | 475 kts | 39° |
| 2026-05-07 14:48 | 50.53961 | 8.74368 | 34805 ft | 476 kts | 39° |
| 2026-05-07 14:48 | 50.56444 | 8.77820 | 34988 ft | 477 kts | 45° |
| 2026-05-07 14:48 | 50.60350 | 8.86295 | 35051 ft | 481 kts | 60° |
| 2026-05-07 14:49 | 50.63386 | 8.95643 | 35052 ft | 482 kts | 63° |
| 2026-05-07 14:49 | 50.66443 | 9.05047 | 35053 ft | 482 kts | 62° |
| 2026-05-07 14:50 | 50.69590 | 9.14315 | 35048 ft | 482 kts | 61° |
| 2026-05-07 14:50 | 50.72740 | 9.23681 | 35049 ft | 482 kts | 63° |
| 2026-05-07 14:51 | 50.75738 | 9.33170 | 35049 ft | 483 kts | 63° |
| 2026-05-07 14:51 | 50.78712 | 9.42711 | 35048 ft | 483 kts | 63° |
| 2026-05-07 14:52 | 50.81669 | 9.52187 | 35047 ft | 483 kts | 63° |
| 2026-05-07 14:52 | 50.84645 | 9.61733 | 35048 ft | 483 kts | 63° |
| 2026-05-07 14:53 | 50.87607 | 9.71284 | 35051 ft | 483 kts | 64° |
| 2026-05-07 14:53 | 50.90526 | 9.80811 | 35054 ft | 483 kts | 64° |
| 2026-05-07 14:54 | 50.93468 | 9.90418 | 35050 ft | 483 kts | 64° |
| 2026-05-07 14:54 | 50.96396 | 10.00013 | 35037 ft | 483 kts | 64° |
| 2026-05-07 14:55 | 50.99297 | 10.09559 | 35047 ft | 482 kts | 64° |
| 2026-05-07 14:55 | 51.02211 | 10.19165 | 35050 ft | 482 kts | 64° |
| 2026-05-07 14:56 | 51.05106 | 10.28797 | 35043 ft | 482 kts | 65° |
| 2026-05-07 14:56 | 51.07873 | 10.38528 | 35041 ft | 482 kts | 66° |
| 2026-05-07 14:57 | 51.10593 | 10.48251 | 35051 ft | 482 kts | 66° |
| 2026-05-07 14:57 | 51.13312 | 10.57960 | 35053 ft | 483 kts | 66° |
| 2026-05-07 14:58 | 51.16043 | 10.67735 | 35055 ft | 483 kts | 66° |
| 2026-05-07 14:58 | 51.18766 | 10.77528 | 35054 ft | 483 kts | 66° |
| 2026-05-07 14:59 | 51.21462 | 10.87271 | 35056 ft | 483 kts | 66° |
| 2026-05-07 14:59 | 51.24169 | 10.97074 | 35056 ft | 483 kts | 66° |
| 2026-05-07 15:00 | 51.26870 | 11.06892 | 35057 ft | 483 kts | 66° |
| 2026-05-07 15:00 | 51.29566 | 11.16743 | 35063 ft | 483 kts | 66° |
| 2026-05-07 15:01 | 51.32289 | 11.26553 | 35063 ft | 483 kts | 63° |
| 2026-05-07 15:01 | 51.35734 | 11.35703 | 35061 ft | 483 kts | 56° |
| 2026-05-07 15:02 | 51.39515 | 11.44598 | 35065 ft | 483 kts | 56° |
| 2026-05-07 15:02 | 51.43276 | 11.53534 | 35065 ft | 483 kts | 56° |
| 2026-05-07 15:03 | 51.46972 | 11.62484 | 35066 ft | 483 kts | 57° |
| 2026-05-07 15:03 | 51.50670 | 11.71514 | 35062 ft | 483 kts | 57° |
| 2026-05-07 15:04 | 51.54357 | 11.80548 | 35058 ft | 483 kts | 57° |
| 2026-05-07 15:04 | 51.58038 | 11.89596 | 35058 ft | 483 kts | 57° |
| 2026-05-07 15:05 | 51.61694 | 11.98609 | 35057 ft | 483 kts | 57° |
| 2026-05-07 15:05 | 51.65202 | 12.07833 | 35058 ft | 483 kts | 62° |
| 2026-05-07 15:06 | 51.68200 | 12.17532 | 35057 ft | 482 kts | 65° |
| 2026-05-07 15:06 | 51.71070 | 12.27244 | 35057 ft | 483 kts | 65° |
| 2026-05-07 15:07 | 51.73987 | 12.37001 | 35057 ft | 483 kts | 65° |
| 2026-05-07 15:07 | 51.76926 | 12.46772 | 35058 ft | 483 kts | 65° |
| 2026-05-07 15:08 | 51.79845 | 12.56498 | 35059 ft | 483 kts | 65° |
| 2026-05-07 15:08 | 51.82783 | 12.66291 | 35055 ft | 483 kts | 65° |
| 2026-05-07 15:09 | 51.85715 | 12.76086 | 35056 ft | 484 kts | 65° |
| 2026-05-07 15:09 | 51.88625 | 12.85844 | 35053 ft | 484 kts | 65° |
| 2026-05-07 15:10 | 51.91544 | 12.95678 | 35052 ft | 484 kts | 65° |
| 2026-05-07 15:10 | 51.94438 | 13.05542 | 35053 ft | 485 kts | 65° |
| 2026-05-07 15:11 | 51.97333 | 13.15431 | 35057 ft | 485 kts | 65° |
| 2026-05-07 15:11 | 52.00213 | 13.25269 | 35047 ft | 485 kts | 65° |
| 2026-05-07 15:12 | 52.03109 | 13.35192 | 35048 ft | 486 kts | 65° |
| 2026-05-07 15:12 | 52.05998 | 13.45133 | 35053 ft | 486 kts | 66° |
| 2026-05-07 15:13 | 52.08865 | 13.55041 | 35055 ft | 487 kts | 66° |
| 2026-05-07 15:13 | 52.11739 | 13.65017 | 35054 ft | 487 kts | 66° |
| 2026-05-07 15:14 | 52.14595 | 13.75055 | 35055 ft | 488 kts | 66° |
| 2026-05-07 15:14 | 52.17432 | 13.85056 | 35051 ft | 488 kts | 66° |
| 2026-05-07 15:15 | 52.20290 | 13.95115 | 35046 ft | 489 kts | 66° |
| 2026-05-07 15:15 | 52.23132 | 14.05141 | 35040 ft | 489 kts | 66° |
| 2026-05-07 15:16 | 52.25497 | 14.13556 | 35045 ft | 490 kts | 67° |
| 2026-05-07 15:16 | 52.28780 | 14.25349 | 35044 ft | 490 kts | 67° |
| 2026-05-07 15:17 | 52.31146 | 14.33858 | 35041 ft | 491 kts | 67° |
| 2026-05-07 15:17 | 52.33953 | 14.43971 | 35037 ft | 491 kts | 68° |
| 2026-05-07 15:18 | 52.36775 | 14.54169 | 35039 ft | 492 kts | 67° |
| 2026-05-07 15:18 | 52.39974 | 14.64118 | 35038 ft | 494 kts | 62° |
| 2026-05-07 15:19 | 52.43448 | 14.73762 | 35037 ft | 494 kts | 61° |
| 2026-05-07 15:19 | 52.46961 | 14.83479 | 35040 ft | 495 kts | 62° |
| 2026-05-07 15:20 | 52.50439 | 14.93247 | 35040 ft | 495 kts | 62° |
| 2026-05-07 15:20 | 52.53894 | 15.03042 | 35036 ft | 496 kts | 62° |
| 2026-05-07 15:21 | 52.57324 | 15.12808 | 35038 ft | 496 kts | 62° |
| 2026-05-07 15:21 | 52.60775 | 15.22672 | 35035 ft | 497 kts | 62° |
| 2026-05-07 15:22 | 52.64217 | 15.32545 | 35030 ft | 497 kts | 63° |
| 2026-05-07 15:22 | 52.67629 | 15.42369 | 35033 ft | 497 kts | 63° |
| 2026-05-07 15:23 | 52.71061 | 15.52290 | 35032 ft | 497 kts | 63° |
| 2026-05-07 15:23 | 52.74484 | 15.62228 | 35033 ft | 498 kts | 63° |
| 2026-05-07 15:24 | 52.77902 | 15.72188 | 35034 ft | 498 kts | 63° |
| 2026-05-07 15:24 | 52.81261 | 15.82146 | 35031 ft | 498 kts | 64° |
| 2026-05-07 15:25 | 52.84243 | 15.92463 | 35032 ft | 496 kts | 70° |
| 2026-05-07 15:25 | 52.86877 | 16.03023 | 35032 ft | 496 kts | 71° |
| 2026-05-07 15:26 | 52.89489 | 16.13603 | 35032 ft | 496 kts | 71° |
| 2026-05-07 15:26 | 52.92121 | 16.24132 | 35033 ft | 497 kts | 71° |
| 2026-05-07 15:27 | 52.94774 | 16.34721 | 35029 ft | 497 kts | 71° |
| 2026-05-07 15:27 | 52.97424 | 16.45338 | 35028 ft | 497 kts | 71° |
| 2026-05-07 15:28 | 53.00046 | 16.55906 | 35029 ft | 498 kts | 71° |
| 2026-05-07 15:28 | 53.02675 | 16.66555 | 35030 ft | 498 kts | 71° |
| 2026-05-07 15:29 | 53.05302 | 16.77247 | 35025 ft | 499 kts | 71° |
| 2026-05-07 15:29 | 53.07907 | 16.87903 | 35026 ft | 500 kts | 71° |
| 2026-05-07 15:30 | 53.10520 | 16.98643 | 35026 ft | 501 kts | 71° |
| 2026-05-07 15:30 | 53.13101 | 17.09437 | 35029 ft | 501 kts | 72° |
| 2026-05-07 15:31 | 53.15673 | 17.20260 | 35024 ft | 502 kts | 72° |
| 2026-05-07 15:31 | 53.18250 | 17.31035 | 35021 ft | 503 kts | 71° |
| 2026-05-07 15:32 | 53.20847 | 17.41895 | 35022 ft | 504 kts | 72° |
| 2026-05-07 15:32 | 53.23442 | 17.52796 | 35023 ft | 505 kts | 72° |
| 2026-05-07 15:33 | 53.26011 | 17.63652 | 35024 ft | 506 kts | 72° |
| 2026-05-07 15:33 | 53.28591 | 17.74611 | 35041 ft | 506 kts | 72° |
| 2026-05-07 15:34 | 53.31163 | 17.85591 | 35014 ft | 507 kts | 72° |
| 2026-05-07 15:34 | 53.33731 | 17.96615 | 35024 ft | 508 kts | 72° |
| 2026-05-07 15:35 | 53.36279 | 18.07606 | 35019 ft | 509 kts | 72° |
| 2026-05-07 15:35 | 53.38811 | 18.18695 | 35023 ft | 509 kts | 73° |
| 2026-05-07 15:36 | 53.41309 | 18.29830 | 35021 ft | 510 kts | 73° |
| 2026-05-07 15:36 | 53.43806 | 18.40900 | 35026 ft | 511 kts | 73° |
| 2026-05-07 15:37 | 53.46328 | 18.52066 | 35027 ft | 511 kts | 73° |
| 2026-05-07 15:37 | 53.48845 | 18.63261 | 35023 ft | 512 kts | 73° |
| 2026-05-07 15:38 | 53.51336 | 18.74404 | 35025 ft | 512 kts | 73° |
| 2026-05-07 15:38 | 53.53728 | 18.85701 | 35020 ft | 512 kts | 75° |
| 2026-05-07 15:39 | 53.56020 | 18.97040 | 35020 ft | 512 kts | 75° |
| 2026-05-07 15:39 | 53.58314 | 19.08410 | 35019 ft | 513 kts | 75° |
| 2026-05-07 15:40 | 53.60610 | 19.19777 | 35016 ft | 513 kts | 75° |
| 2026-05-07 15:40 | 53.62890 | 19.31101 | 35017 ft | 513 kts | 75° |
| 2026-05-07 15:41 | 53.65172 | 19.42506 | 35021 ft | 514 kts | 75° |
| 2026-05-07 15:41 | 53.67444 | 19.53935 | 35019 ft | 514 kts | 75° |
| 2026-05-07 15:42 | 53.69706 | 19.65378 | 35012 ft | 514 kts | 75° |
| 2026-05-07 15:42 | 53.71948 | 19.76830 | 35011 ft | 514 kts | 76° |
| 2026-05-07 15:43 | 53.74135 | 19.88253 | 35012 ft | 514 kts | 76° |
| 2026-05-07 15:43 | 53.76346 | 19.99767 | 35006 ft | 514 kts | 76° |
| 2026-05-07 15:44 | 53.78566 | 20.11303 | 35000 ft | 515 kts | 76° |
| 2026-05-07 15:44 | 53.80760 | 20.22752 | 35003 ft | 515 kts | 76° |
| 2026-05-07 15:45 | 53.82958 | 20.34294 | 35001 ft | 515 kts | 76° |
| 2026-05-07 15:45 | 53.85137 | 20.45811 | 35007 ft | 515 kts | 76° |
| 2026-05-07 15:46 | 53.88364 | 20.63185 | 35001 ft | 515 kts | 76° |
| 2026-05-07 15:47 | 53.90518 | 20.74801 | 35002 ft | 515 kts | 76° |
| 2026-05-07 15:47 | 53.92655 | 20.86328 | 34993 ft | 515 kts | 76° |
| 2026-05-07 15:48 | 53.94801 | 20.97958 | 34992 ft | 515 kts | 76° |
| 2026-05-07 15:48 | 53.96934 | 21.09601 | 34987 ft | 515 kts | 76° |
| 2026-05-07 15:49 | 53.99042 | 21.21181 | 34989 ft | 515 kts | 76° |
| 2026-05-07 15:49 | 54.01130 | 21.32852 | 34983 ft | 515 kts | 77° |
| 2026-05-07 15:50 | 54.03211 | 21.44537 | 34979 ft | 515 kts | 77° |
| 2026-05-07 15:50 | 54.05288 | 21.56167 | 34974 ft | 515 kts | 77° |
| 2026-05-07 15:51 | 54.07371 | 21.67873 | 34973 ft | 515 kts | 77° |
| 2026-05-07 15:51 | 54.09428 | 21.79506 | 34969 ft | 515 kts | 77° |
| 2026-05-07 15:52 | 54.11485 | 21.91222 | 34970 ft | 516 kts | 77° |
| 2026-05-07 15:52 | 54.13524 | 22.02914 | 34968 ft | 516 kts | 77° |
| 2026-05-07 15:53 | 54.15562 | 22.14676 | 34961 ft | 516 kts | 77° |
| 2026-05-07 15:53 | 54.17557 | 22.26447 | 34965 ft | 516 kts | 77° |
| 2026-05-07 15:54 | 54.19522 | 22.38177 | 34961 ft | 517 kts | 77° |
| 2026-05-07 15:54 | 54.21514 | 22.50006 | 34967 ft | 517 kts | 77° |
| 2026-05-07 15:55 | 54.23501 | 22.61830 | 34963 ft | 518 kts | 77° |
| 2026-05-07 15:55 | 54.25469 | 22.73612 | 34965 ft | 518 kts | 77° |
| 2026-05-07 15:56 | 54.27439 | 22.85493 | 34965 ft | 518 kts | 77° |
| 2026-05-07 15:56 | 54.29395 | 22.97374 | 34966 ft | 519 kts | 78° |
| 2026-05-07 15:57 | 54.31514 | 23.09151 | 34964 ft | 521 kts | 74° |
| 2026-05-07 15:57 | 54.33909 | 23.20889 | 34968 ft | 522 kts | 73° |
| 2026-05-07 15:58 | 54.36337 | 23.32606 | 34962 ft | 522 kts | 73° |
| 2026-05-07 15:58 | 54.38740 | 23.44366 | 34965 ft | 522 kts | 73° |
| 2026-05-07 15:59 | 54.41108 | 23.56107 | 34963 ft | 522 kts | 73° |
| 2026-05-07 15:59 | 54.43479 | 23.67944 | 34965 ft | 523 kts | 73° |
| 2026-05-07 16:00 | 54.45819 | 23.79693 | 34960 ft | 523 kts | 73° |
| 2026-05-07 16:00 | 54.48167 | 23.91552 | 34962 ft | 524 kts | 73° |
| 2026-05-07 16:01 | 54.50498 | 24.03393 | 34955 ft | 524 kts | 73° |
| 2026-05-07 16:01 | 54.52829 | 24.15310 | 34953 ft | 524 kts | 74° |
| 2026-05-07 16:02 | 54.55147 | 24.27234 | 34953 ft | 525 kts | 74° |
| 2026-05-07 16:02 | 54.57444 | 24.39203 | 34951 ft | 525 kts | 74° |
| 2026-05-07 16:03 | 54.59688 | 24.51188 | 34948 ft | 526 kts | 74° |
| 2026-05-07 16:03 | 54.61941 | 24.63135 | 34944 ft | 526 kts | 74° |
| 2026-05-07 16:04 | 54.64222 | 24.75171 | 34939 ft | 527 kts | 74° |
| 2026-05-07 16:04 | 54.66479 | 24.87133 | 34940 ft | 526 kts | 74° |
| 2026-05-07 16:05 | 54.68734 | 24.99176 | 34943 ft | 526 kts | 74° |
| 2026-05-07 16:05 | 54.70975 | 25.11224 | 34941 ft | 525 kts | 74° |
| 2026-05-07 16:06 | 54.73185 | 25.23184 | 34937 ft | 524 kts | 74° |
| 2026-05-07 16:06 | 54.75395 | 25.35221 | 34937 ft | 524 kts | 74° |
| 2026-05-07 16:07 | 54.77589 | 25.47247 | 34931 ft | 523 kts | 74° |
| 2026-05-07 16:07 | 54.79760 | 25.59222 | 34927 ft | 523 kts | 74° |
| 2026-05-07 16:08 | 54.81923 | 25.71243 | 34925 ft | 522 kts | 74° |
| 2026-05-07 16:08 | 54.83964 | 25.83312 | 34914 ft | 520 kts | 77° |
| 2026-05-07 16:09 | 54.85409 | 25.93438 | 34912 ft | 519 kts | 79° |
| 2026-05-07 16:09 | 54.87054 | 26.05635 | 34910 ft | 518 kts | 79° |
| 2026-05-07 16:10 | 54.88710 | 26.17824 | 34909 ft | 518 kts | 78° |
| 2026-05-07 16:10 | 54.90366 | 26.30007 | 34910 ft | 517 kts | 79° |
| 2026-05-07 16:11 | 54.92005 | 26.42130 | 34904 ft | 517 kts | 79° |
| 2026-05-07 16:11 | 54.93649 | 26.54307 | 34908 ft | 516 kts | 79° |
| 2026-05-07 16:12 | 54.95272 | 26.66417 | 34906 ft | 516 kts | 79° |
| 2026-05-07 16:12 | 54.96895 | 26.78621 | 34895 ft | 516 kts | 79° |
| 2026-05-07 16:13 | 54.98489 | 26.90714 | 34895 ft | 516 kts | 79° |
| 2026-05-07 16:13 | 55.00082 | 27.02907 | 34896 ft | 515 kts | 79° |
| 2026-05-07 16:14 | 55.01667 | 27.15135 | 34900 ft | 515 kts | 79° |
| 2026-05-07 16:14 | 55.03223 | 27.27249 | 34901 ft | 514 kts | 79° |
| 2026-05-07 16:15 | 55.04773 | 27.39418 | 34899 ft | 514 kts | 79° |
| 2026-05-07 16:15 | 55.06253 | 27.51606 | 34889 ft | 513 kts | 80° |
| 2026-05-07 16:16 | 55.07707 | 27.63738 | 34890 ft | 513 kts | 80° |
| 2026-05-07 16:16 | 55.09184 | 27.75950 | 34894 ft | 513 kts | 80° |
| 2026-05-07 16:17 | 55.10652 | 27.88106 | 34892 ft | 513 kts | 80° |
| 2026-05-07 16:17 | 55.12116 | 28.00327 | 34889 ft | 513 kts | 80° |
| 2026-05-07 16:18 | 55.13566 | 28.12560 | 34887 ft | 513 kts | 80° |
| 2026-05-07 16:18 | 55.14903 | 28.24815 | 34888 ft | 511 kts | 84° |
| 2026-05-07 16:19 | 55.15715 | 28.37074 | 34882 ft | 510 kts | 86° |
| 2026-05-07 16:19 | 55.16385 | 28.49425 | 34885 ft | 509 kts | 86° |
| 2026-05-07 16:20 | 55.17080 | 28.61761 | 34868 ft | 509 kts | 86° |
| 2026-05-07 16:20 | 55.17794 | 28.74087 | 34874 ft | 509 kts | 86° |
| 2026-05-07 16:21 | 55.18499 | 28.86344 | 34874 ft | 509 kts | 86° |
| 2026-05-07 16:21 | 55.19194 | 28.98689 | 34871 ft | 509 kts | 86° |
| 2026-05-07 16:22 | 55.19877 | 29.11051 | 34868 ft | 509 kts | 86° |
| 2026-05-07 16:22 | 55.20546 | 29.23414 | 34877 ft | 509 kts | 86° |
| 2026-05-07 16:23 | 55.21203 | 29.35785 | 34868 ft | 509 kts | 86° |
| 2026-05-07 16:23 | 55.21843 | 29.48075 | 34853 ft | 509 kts | 86° |
| 2026-05-07 16:24 | 55.22475 | 29.60442 | 34860 ft | 509 kts | 86° |
| 2026-05-07 16:24 | 55.23063 | 29.72825 | 34861 ft | 509 kts | 86° |
| 2026-05-07 16:25 | 55.23613 | 29.85139 | 34860 ft | 509 kts | 86° |
| 2026-05-07 16:25 | 55.24190 | 29.97531 | 34856 ft | 509 kts | 86° |
| 2026-05-07 16:26 | 55.24767 | 30.09824 | 34856 ft | 509 kts | 86° |
| 2026-05-07 16:26 | 55.25338 | 30.22208 | 34852 ft | 508 kts | 86° |
| 2026-05-07 16:27 | 55.25894 | 30.34572 | 34854 ft | 508 kts | 86° |
| 2026-05-07 16:27 | 55.26433 | 30.46855 | 34857 ft | 508 kts | 86° |
| 2026-05-07 16:28 | 55.26963 | 30.59214 | 34851 ft | 508 kts | 86° |
| 2026-05-07 16:28 | 55.27480 | 30.71572 | 34846 ft | 507 kts | 86° |
| 2026-05-07 16:29 | 55.28009 | 30.83828 | 34847 ft | 507 kts | 83° |
| 2026-05-07 16:29 | 55.29638 | 30.95835 | 34845 ft | 507 kts | 71° |
| 2026-05-07 16:30 | 55.31986 | 31.07522 | 34846 ft | 507 kts | 70° |
| 2026-05-07 16:30 | 55.34336 | 31.19202 | 34845 ft | 507 kts | 70° |
| 2026-05-07 16:31 | 55.36592 | 31.30966 | 34843 ft | 507 kts | 71° |
| 2026-05-07 16:31 | 55.38772 | 31.42680 | 34842 ft | 507 kts | 71° |
| 2026-05-07 16:32 | 55.40965 | 31.54510 | 34846 ft | 507 kts | 71° |
| 2026-05-07 16:32 | 55.43139 | 31.66237 | 34842 ft | 507 kts | 71° |
| 2026-05-07 16:33 | 55.45324 | 31.78071 | 34843 ft | 507 kts | 71° |
| 2026-05-07 16:33 | 55.47493 | 31.89895 | 34845 ft | 507 kts | 71° |
| 2026-05-07 16:34 | 55.49637 | 32.01664 | 34842 ft | 507 kts | 71° |
| 2026-05-07 16:34 | 55.51784 | 32.13525 | 34841 ft | 507 kts | 72° |
| 2026-05-07 16:35 | 55.53921 | 32.25405 | 34844 ft | 507 kts | 72° |
| 2026-05-07 16:35 | 55.56046 | 32.37297 | 34841 ft | 507 kts | 72° |
| 2026-05-07 16:36 | 55.58155 | 32.49182 | 34842 ft | 507 kts | 72° |
| 2026-05-07 16:36 | 55.60240 | 32.61003 | 34840 ft | 507 kts | 72° |
| 2026-05-07 16:37 | 55.62319 | 32.72959 | 34841 ft | 506 kts | 72° |
| 2026-05-07 16:37 | 55.64340 | 32.84909 | 34841 ft | 506 kts | 72° |
| 2026-05-07 16:38 | 55.66364 | 32.96764 | 34840 ft | 505 kts | 72° |
| 2026-05-07 16:38 | 55.68413 | 33.08708 | 34843 ft | 505 kts | 72° |
| 2026-05-07 16:39 | 55.70434 | 33.20540 | 34840 ft | 505 kts | 72° |
| 2026-05-07 16:39 | 55.72438 | 33.32483 | 34844 ft | 504 kts | 73° |
| 2026-05-07 16:40 | 55.74428 | 33.44425 | 34843 ft | 504 kts | 73° |
| 2026-05-07 16:40 | 55.76414 | 33.56353 | 34843 ft | 503 kts | 73° |
| 2026-05-07 16:41 | 55.78392 | 33.68291 | 34843 ft | 503 kts | 73° |
| 2026-05-07 16:41 | 55.80344 | 33.80146 | 34846 ft | 503 kts | 73° |
| 2026-05-07 16:42 | 55.82299 | 33.92102 | 34847 ft | 503 kts | 73° |
| 2026-05-07 16:42 | 55.84241 | 34.04071 | 34755 ft | 501 kts | 73° |
| 2026-05-07 16:42 | 55.85201 | 34.10016 | 34530 ft | 499 kts | 73° |
| 2026-05-07 16:43 | 55.86157 | 34.15955 | 34091 ft | 500 kts | 73° |
| 2026-05-07 16:43 | 55.87103 | 34.21858 | 33437 ft | 499 kts | 73° |
| 2026-05-07 16:43 | 55.88052 | 34.27797 | 32790 ft | 500 kts | 73° |
| 2026-05-07 16:43 | 55.88966 | 34.33801 | 32160 ft | 502 kts | 77° |
| 2026-05-07 16:44 | 55.89508 | 34.39965 | 31529 ft | 504 kts | 85° |
| 2026-05-07 16:44 | 55.89731 | 34.46213 | 30910 ft | 505 kts | 89° |
| 2026-05-07 16:44 | 55.89805 | 34.52410 | 30294 ft | 506 kts | 90° |
| 2026-05-07 16:44 | 55.89842 | 34.58728 | 29594 ft | 508 kts | 90° |
| 2026-05-07 16:45 | 55.89887 | 34.65028 | 28856 ft | 509 kts | 90° |
| 2026-05-07 16:45 | 55.89957 | 34.71337 | 28159 ft | 511 kts | 89° |
| 2026-05-07 16:45 | 55.90048 | 34.77687 | 27463 ft | 512 kts | 89° |
| 2026-05-07 16:45 | 55.90151 | 34.84038 | 26789 ft | 514 kts | 89° |
| 2026-05-07 16:46 | 55.90258 | 34.90401 | 26110 ft | 512 kts | 89° |
| 2026-05-07 16:46 | 55.90364 | 34.96724 | 25431 ft | 508 kts | 89° |
| 2026-05-07 16:46 | 55.90463 | 35.02974 | 24763 ft | 503 kts | 89° |
| 2026-05-07 16:46 | 55.90550 | 35.09182 | 24082 ft | 498 kts | 90° |
| 2026-05-07 16:47 | 55.90630 | 35.15261 | 23350 ft | 494 kts | 90° |
| 2026-05-07 16:47 | 55.90711 | 35.21352 | 22554 ft | 488 kts | 90° |
| 2026-05-07 16:47 | 55.90792 | 35.27372 | 21826 ft | 484 kts | 90° |
| 2026-05-07 16:47 | 55.90873 | 35.33367 | 21113 ft | 479 kts | 90° |
| 2026-05-07 16:48 | 55.90952 | 35.39281 | 20421 ft | 475 kts | 90° |
| 2026-05-07 16:48 | 55.91027 | 35.45080 | 19747 ft | 471 kts | 90° |
| 2026-05-07 16:48 | 55.91100 | 35.50904 | 19069 ft | 467 kts | 90° |
| 2026-05-07 16:48 | 55.91169 | 35.56672 | 18404 ft | 463 kts | 90° |
| 2026-05-07 16:49 | 55.91235 | 35.62387 | 17727 ft | 458 kts | 90° |
| 2026-05-07 16:49 | 55.91297 | 35.68035 | 17281 ft | 453 kts | 90° |
| 2026-05-07 16:49 | 55.91356 | 35.73511 | 17127 ft | 430 kts | 90° |
| 2026-05-07 16:49 | 55.91411 | 35.78726 | 16988 ft | 409 kts | 90° |
| 2026-05-07 16:50 | 55.91486 | 35.83611 | 16860 ft | 390 kts | 88° |
| 2026-05-07 16:50 | 55.91711 | 35.88366 | 16506 ft | 383 kts | 84° |
| 2026-05-07 16:50 | 55.92030 | 35.93077 | 15852 ft | 382 kts | 83° |
| 2026-05-07 16:50 | 55.92389 | 35.97768 | 15256 ft | 381 kts | 82° |
| 2026-05-07 16:51 | 55.92755 | 36.02423 | 14645 ft | 371 kts | 82° |
| 2026-05-07 16:51 | 55.93109 | 36.06950 | 14143 ft | 366 kts | 82° |
| 2026-05-07 16:51 | 55.93462 | 36.11429 | 13869 ft | 363 kts | 81° |
| 2026-05-07 16:51 | 55.94105 | 36.15754 | 13804 ft | 361 kts | 65° |
| 2026-05-07 16:52 | 55.95507 | 36.19419 | 13640 ft | 353 kts | 38° |
| 2026-05-07 16:52 | 55.97506 | 36.21765 | 13430 ft | 347 kts | 21° |
| 2026-05-07 16:52 | 55.99722 | 36.23430 | 13085 ft | 342 kts | 15° |
| 2026-05-07 16:52 | 56.01917 | 36.24855 | 12948 ft | 327 kts | 15° |
| 2026-05-07 16:53 | 56.04026 | 36.26220 | 12846 ft | 318 kts | 15° |
| 2026-05-07 16:53 | 56.06094 | 36.27586 | 12780 ft | 317 kts | 15° |
| 2026-05-07 16:53 | 56.08163 | 36.28987 | 12715 ft | 317 kts | 15° |
| 2026-05-07 16:53 | 56.10220 | 36.30410 | 12656 ft | 316 kts | 16° |
| 2026-05-07 16:54 | 56.12260 | 36.31840 | 12257 ft | 320 kts | 16° |
| 2026-05-07 16:54 | 56.14333 | 36.33309 | 11713 ft | 321 kts | 16° |
| 2026-05-07 16:54 | 56.16387 | 36.34908 | 11148 ft | 324 kts | 24° |
| 2026-05-07 16:54 | 56.18315 | 36.37074 | 10589 ft | 329 kts | 30° |
| 2026-05-07 16:55 | 56.20178 | 36.39503 | 10096 ft | 329 kts | 32° |
| 2026-05-07 16:55 | 56.22006 | 36.41987 | 9518 ft | 330 kts | 33° |
| 2026-05-07 16:55 | 56.23809 | 36.44453 | 9055 ft | 327 kts | 32° |
| 2026-05-07 16:55 | 56.25484 | 36.47144 | 8893 ft | 317 kts | 48° |
| 2026-05-07 16:56 | 56.26529 | 36.50568 | 8794 ft | 310 kts | 67° |
| 2026-05-07 16:56 | 56.27177 | 36.54264 | 8690 ft | 309 kts | 73° |
| 2026-05-07 16:56 | 56.28256 | 36.61814 | 7972 ft | 311 kts | 74° |
| 2026-05-07 16:57 | 56.28788 | 36.65576 | 7603 ft | 309 kts | 74° |
| 2026-05-07 16:57 | 56.29325 | 36.69309 | 7240 ft | 306 kts | 73° |
| 2026-05-07 16:57 | 56.29862 | 36.72974 | 7046 ft | 298 kts | 73° |
| 2026-05-07 16:57 | 56.30383 | 36.76482 | 6989 ft | 288 kts | 73° |
| 2026-05-07 16:58 | 56.30900 | 36.79943 | 6983 ft | 284 kts | 73° |
| 2026-05-07 16:58 | 56.31417 | 36.83382 | 6978 ft | 284 kts | 73° |
| 2026-05-07 16:58 | 56.31845 | 36.85594 | 6967 ft | 281 kts | 59° |
| 2026-05-07 16:58 | 56.32952 | 36.88390 | 6991 ft | 268 kts | 43° |
| 2026-05-07 16:59 | 56.34229 | 36.90774 | 6991 ft | 263 kts | 39° |
| 2026-05-07 16:59 | 56.35546 | 36.93082 | 6984 ft | 264 kts | 39° |
| 2026-05-07 16:59 | 56.36866 | 36.95381 | 6993 ft | 263 kts | 39° |
| 2026-05-07 16:59 | 56.38182 | 36.97677 | 6972 ft | 262 kts | 39° |
| 2026-05-07 17:00 | 56.39499 | 36.99981 | 6998 ft | 263 kts | 39° |
| 2026-05-07 17:00 | 56.40765 | 37.02309 | 6975 ft | 265 kts | 46° |
| 2026-05-07 17:00 | 56.41792 | 37.05097 | 6999 ft | 268 kts | 56° |
| 2026-05-07 17:00 | 56.42700 | 37.08055 | 6979 ft | 269 kts | 58° |
| 2026-05-07 17:01 | 56.43579 | 37.11042 | 6976 ft | 269 kts | 58° |
| 2026-05-07 17:01 | 56.44445 | 37.14046 | 6979 ft | 273 kts | 63° |
| 2026-05-07 17:01 | 56.44884 | 37.17571 | 7000 ft | 297 kts | 90° |
| 2026-05-07 17:01 | 56.44467 | 37.21224 | 6981 ft | 299 kts | 117° |
| 2026-05-07 17:02 | 56.43258 | 37.24201 | 6984 ft | 293 kts | 144° |
| 2026-05-07 17:02 | 56.41512 | 37.25926 | 6985 ft | 282 kts | 171° |
| 2026-05-07 17:02 | 56.39620 | 37.26548 | 6992 ft | 281 kts | 176° |
| 2026-05-07 17:02 | 56.37690 | 37.27141 | 6993 ft | 281 kts | 176° |
| 2026-05-07 17:03 | 56.35766 | 37.27748 | 6991 ft | 281 kts | 176° |
| 2026-05-07 17:03 | 56.33843 | 37.28354 | 6991 ft | 280 kts | 176° |
| 2026-05-07 17:03 | 56.31924 | 37.28954 | 6989 ft | 280 kts | 176° |
| 2026-05-07 17:03 | 56.30006 | 37.29550 | 6989 ft | 279 kts | 176° |
| 2026-05-07 17:04 | 56.28089 | 37.30143 | 6986 ft | 279 kts | 176° |
| 2026-05-07 17:04 | 56.26194 | 37.30727 | 6983 ft | 279 kts | 176° |
| 2026-05-07 17:04 | 56.24330 | 37.31319 | 6972 ft | 280 kts | 172° |
| 2026-05-07 17:04 | 56.22530 | 37.32797 | 6956 ft | 291 kts | 146° |
| 2026-05-07 17:05 | 56.21215 | 37.35602 | 6962 ft | 298 kts | 118° |
| 2026-05-07 17:05 | 56.20619 | 37.39197 | 6694 ft | 305 kts | 98° |
| 2026-05-07 17:05 | 56.20406 | 37.42991 | 6156 ft | 310 kts | 94° |
| 2026-05-07 17:05 | 56.20255 | 37.46783 | 5648 ft | 298 kts | 94° |
| 2026-05-07 17:06 | 56.20111 | 37.50456 | 5241 ft | 288 kts | 93° |
| 2026-05-07 17:06 | 56.19967 | 37.53908 | 5070 ft | 267 kts | 94° |
| 2026-05-07 17:06 | 56.19749 | 37.57155 | 4951 ft | 260 kts | 105° |
| 2026-05-07 17:06 | 56.18935 | 37.59967 | 4912 ft | 254 kts | 129° |
| 2026-05-07 17:07 | 56.17775 | 37.62355 | 4856 ft | 253 kts | 135° |
| 2026-05-07 17:07 | 56.16561 | 37.64634 | 4810 ft | 253 kts | 136° |
| 2026-05-07 17:07 | 56.15333 | 37.66905 | 4737 ft | 253 kts | 136° |
| 2026-05-07 17:07 | 56.14117 | 37.69147 | 4485 ft | 253 kts | 136° |
| 2026-05-07 17:08 | 56.12894 | 37.71398 | 4220 ft | 248 kts | 135° |
| 2026-05-07 17:08 | 56.11732 | 37.73540 | 4111 ft | 229 kts | 136° |
| 2026-05-07 17:08 | 56.10655 | 37.75497 | 3993 ft | 214 kts | 139° |
| 2026-05-07 17:08 | 56.09420 | 37.76835 | 3873 ft | 202 kts | 169° |
| 2026-05-07 17:09 | 56.08082 | 37.76773 | 3875 ft | 194 kts | 197° |
| 2026-05-07 17:09 | 56.06776 | 37.76144 | 3923 ft | 193 kts | 200° |
| 2026-05-07 17:09 | 56.05480 | 37.75467 | 3925 ft | 193 kts | 200° |
| 2026-05-07 17:09 | 56.04188 | 37.74776 | 3918 ft | 194 kts | 201° |
| 2026-05-07 17:10 | 56.02921 | 37.73977 | 3914 ft | 191 kts | 213° |
| 2026-05-07 17:10 | 56.02030 | 37.72373 | 3808 ft | 178 kts | 248° |
| 2026-05-07 17:10 | 56.01608 | 37.70421 | 3551 ft | 167 kts | 253° |
| 2026-05-07 17:10 | 56.01225 | 37.68485 | 3373 ft | 165 kts | 254° |
| 2026-05-07 17:11 | 56.00889 | 37.66529 | 3162 ft | 164 kts | 257° |
| 2026-05-07 17:11 | 56.00598 | 37.64588 | 2953 ft | 161 kts | 257° |
| 2026-05-07 17:11 | 56.00307 | 37.62649 | 2732 ft | 161 kts | 257° |
| 2026-05-07 17:11 | 56.00017 | 37.60712 | 2512 ft | 162 kts | 258° |
| 2026-05-07 17:12 | 55.99725 | 37.58758 | 2302 ft | 163 kts | 257° |
| 2026-05-07 17:12 | 55.99433 | 37.56808 | 2101 ft | 163 kts | 258° |
| 2026-05-07 17:12 | 55.99141 | 37.54855 | 1875 ft | 163 kts | 257° |
| 2026-05-07 17:12 | 55.98848 | 37.52896 | 1665 ft | 163 kts | 257° |
| 2026-05-07 17:13 | 55.98555 | 37.50942 | 1461 ft | 163 kts | 257° |
| 2026-05-07 17:13 | 55.98257 | 37.48991 | 1246 ft | 163 kts | 257° |
| 2026-05-07 17:13 | 55.97966 | 37.47039 | 1018 ft | 161 kts | 257° |
| 2026-05-07 17:13 | 55.97683 | 37.45134 | 777 ft | 160 kts | 256° |
| 2026-05-07 17:14 | 55.97416 | 37.43317 | 647 ft | 128 kts | 255° |
| 2026-05-07 17:14 | 55.97232 | 37.42089 | 645 ft | 85 kts | 255° |
| 2026-05-07 17:14 | 55.97111 | 37.41270 | 648 ft | 51 kts | 255° |
| 2026-05-07 17:14 | 55.97035 | 37.40758 | 648 ft | 39 kts | 256° |
| 2026-05-07 17:15 | 55.96971 | 37.40347 | 647 ft | 29 kts | 254° |
| 2026-05-07 17:15 | 55.96943 | 37.40145 | 648 ft | 6 kts | 263° |
| 2026-05-07 17:15 | 55.96945 | 37.40112 | 648 ft | 3 kts | 283° |
| 2026-05-07 17:15 | 55.96959 | 37.40068 | 650 ft | 5 kts | 306° |
| 2026-05-07 17:16 | 55.96986 | 37.40038 | 647 ft | 2 kts | 343° |
| 2026-05-07 17:16 | 55.97036 | 37.40018 | 647 ft | 6 kts | 347° |
| 2026-05-07 17:16 | 55.97095 | 37.39993 | 646 ft | 14 kts | 345° |
| 2026-05-07 17:16 | 55.97218 | 37.39934 | 645 ft | 19 kts | 345° |
| 2026-05-07 17:17 | 55.97289 | 37.39900 | 646 ft | 1 kts | 345° |
| 2026-05-07 17:17 | 55.97312 | 37.39894 | 646 ft | 4 kts | 357° |
| 2026-05-07 17:17 | 55.97342 | 37.39917 | 646 ft | 5 kts | 39° |
| 2026-05-07 17:17 | 55.97355 | 37.39980 | 646 ft | 8 kts | 75° |
| 2026-05-07 17:18 | 55.97378 | 37.40142 | 647 ft | 18 kts | 75° |
| 2026-05-07 17:18 | 55.97419 | 37.40414 | 647 ft | 24 kts | 75° |
| 2026-05-07 17:18 | 55.97462 | 37.40695 | 648 ft | 19 kts | 75° |
| 2026-05-07 17:18 | 55.97492 | 37.40896 | 647 ft | 16 kts | 75° |
| 2026-05-07 17:19 | 55.97524 | 37.41112 | 646 ft | 20 kts | 75° |
| 2026-05-07 17:19 | 55.97563 | 37.41376 | 647 ft | 24 kts | 75° |
| 2026-05-07 17:19 | 55.97597 | 37.41603 | 646 ft | 13 kts | 75° |
| 2026-05-07 17:19 | 55.97625 | 37.41784 | 646 ft | 17 kts | 75° |
| 2026-05-07 17:20 | 55.97660 | 37.42016 | 646 ft | 22 kts | 75° |
| 2026-05-07 17:20 | 55.97698 | 37.42274 | 646 ft | 17 kts | 76° |
| 2026-05-07 17:20 | 55.97728 | 37.42477 | 646 ft | 16 kts | 74° |
| 2026-05-07 17:20 | 55.97756 | 37.42659 | 646 ft | 12 kts | 75° |
| 2026-05-07 17:21 | 55.97782 | 37.42752 | 646 ft | 3 kts | 37° |
| 2026-05-07 17:21 | 55.97803 | 37.42758 | 646 ft | 5 kts | 4° |
| 2026-05-07 17:21 | 55.97855 | 37.42737 | 646 ft | 11 kts | 345° |
| 2026-05-07 17:21 | 55.97947 | 37.42694 | 646 ft | 16 kts | 345° |
| 2026-05-07 17:22 | 55.98024 | 37.42694 | 649 ft | 9 kts | 22° |
| 2026-05-07 17:22 | 55.98081 | 37.42733 | 646 ft | 9 kts | 2° |
| 2026-05-07 17:22 | 55.98137 | 37.42712 | 646 ft | 5 kts | 345° |
| 2026-05-07 17:22 | 55.98155 | 37.42703 | 646 ft | 0 kts | 345° |